sensor_id;sensor_type;location;lat;lon;timestamp;pressure;altitude;pressure_sealevel;temperature;humidity
59686;BME280;45554;51.096;16.976;2024-01-16T00:02:11;98490.80;;;-0.24;90.19
59686;BME280;45554;51.096;16.976;2024-01-16T00:04:38;98492.67;;;-0.23;90.62
59686;BME280;45554;51.096;16.976;2024-01-16T00:07:08;98488.38;;;-0.24;90.68
59686;BME280;45554;51.096;16.976;2024-01-16T00:09:37;98490.95;;;-0.24;90.71
59686;BME280;45554;51.096;16.976;2024-01-16T00:12:05;98496.49;;;-0.24;90.58
59686;BME280;45554;51.096;16.976;2024-01-16T00:14:36;98499.29;;;-0.25;91.26
59686;BME280;45554;51.096;16.976;2024-01-16T00:17:05;98502.80;;;-0.27;90.62
59686;BME280;45554;51.096;16.976;2024-01-16T00:19:33;98509.95;;;-0.29;91.25
59686;BME280;45554;51.096;16.976;2024-01-16T00:22:04;98512.92;;;-0.31;92.08
59686;BME280;45554;51.096;16.976;2024-01-16T00:24:33;98516.79;;;-0.33;92.27
59686;BME280;45554;51.096;16.976;2024-01-16T00:27:01;98531.51;;;-0.35;92.62
59686;BME280;45554;51.096;16.976;2024-01-16T00:29:29;98553.14;;;-0.38;92.80
59686;BME280;45554;51.096;16.976;2024-01-16T00:31:58;98561.13;;;-0.49;90.72
59686;BME280;45554;51.096;16.976;2024-01-16T00:34:26;98572.23;;;-0.66;90.19
59686;BME280;45554;51.096;16.976;2024-01-16T00:36:54;98580.36;;;-0.81;90.43
59686;BME280;45554;51.096;16.976;2024-01-16T00:39:22;98585.41;;;-0.93;91.00
59686;BME280;45554;51.096;16.976;2024-01-16T00:41:50;98587.37;;;-1.05;91.22
59686;BME280;45554;51.096;16.976;2024-01-16T00:44:18;98593.36;;;-1.14;91.61
59686;BME280;45554;51.096;16.976;2024-01-16T00:46:47;98596.09;;;-1.24;91.70
59686;BME280;45554;51.096;16.976;2024-01-16T00:49:15;98609.77;;;-1.32;91.91
59686;BME280;45554;51.096;16.976;2024-01-16T00:51:47;98613.55;;;-1.37;91.66
59686;BME280;45554;51.096;16.976;2024-01-16T00:54:15;98618.98;;;-1.41;91.96
59686;BME280;45554;51.096;16.976;2024-01-16T00:56:42;98628.50;;;-1.43;92.16
59686;BME280;45554;51.096;16.976;2024-01-16T00:59:11;98631.33;;;-1.45;92.46
59686;BME280;45554;51.096;16.976;2024-01-16T01:01:40;98633.26;;;-1.46;92.59
59686;BME280;45554;51.096;16.976;2024-01-16T01:04:07;98634.35;;;-1.49;93.13
59686;BME280;45554;51.096;16.976;2024-01-16T01:06:35;98637.98;;;-1.49;92.84
59686;BME280;45554;51.096;16.976;2024-01-16T01:09:04;98638.86;;;-1.50;93.29
59686;BME280;45554;51.096;16.976;2024-01-16T01:11:32;98633.41;;;-1.52;92.70
59686;BME280;45554;51.096;16.976;2024-01-16T01:14:00;98636.45;;;-1.55;92.63
59686;BME280;45554;51.096;16.976;2024-01-16T01:16:28;98642.74;;;-1.58;92.98
59686;BME280;45554;51.096;16.976;2024-01-16T01:18:56;98650.13;;;-1.59;93.52
59686;BME280;45554;51.096;16.976;2024-01-16T01:21:24;98654.81;;;-1.59;93.39
59686;BME280;45554;51.096;16.976;2024-01-16T01:23:52;98659.96;;;-1.60;93.57
59686;BME280;45554;51.096;16.976;2024-01-16T01:26:20;98652.41;;;-1.60;93.17
59686;BME280;45554;51.096;16.976;2024-01-16T01:28:50;98653.79;;;-1.60;93.41
59686;BME280;45554;51.096;16.976;2024-01-16T01:31:20;98661.71;;;-1.60;93.21
59686;BME280;45554;51.096;16.976;2024-01-16T01:33:47;98659.00;;;-1.62;92.84
59686;BME280;45554;51.096;16.976;2024-01-16T01:36:16;98669.67;;;-1.62;93.02
59686;BME280;45554;51.096;16.976;2024-01-16T01:38:44;98681.04;;;-1.63;92.99
59686;BME280;45554;51.096;16.976;2024-01-16T01:41:12;98683.29;;;-1.64;92.77
59686;BME280;45554;51.096;16.976;2024-01-16T01:43:40;98689.53;;;-1.66;92.60
59686;BME280;45554;51.096;16.976;2024-01-16T01:46:18;98692.65;;;-1.67;92.38
59686;BME280;45554;51.096;16.976;2024-01-16T01:48:47;98692.12;;;-1.66;92.39
59686;BME280;45554;51.096;16.976;2024-01-16T01:51:19;98691.41;;;-1.66;92.03
59686;BME280;45554;51.096;16.976;2024-01-16T01:53:49;98697.80;;;-1.67;91.80
59686;BME280;45554;51.096;16.976;2024-01-16T01:56:20;98697.66;;;-1.68;91.62
59686;BME280;45554;51.096;16.976;2024-01-16T01:58:52;98700.04;;;-1.67;91.72
59686;BME280;45554;51.096;16.976;2024-01-16T02:01:22;98702.27;;;-1.67;91.48
59686;BME280;45554;51.096;16.976;2024-01-16T02:03:51;98716.59;;;-1.69;91.29
59686;BME280;45554;51.096;16.976;2024-01-16T02:06:20;98722.65;;;-1.71;91.46
59686;BME280;45554;51.096;16.976;2024-01-16T02:08:48;98725.68;;;-1.74;91.56
59686;BME280;45554;51.096;16.976;2024-01-16T02:11:16;98728.23;;;-1.73;91.65
59686;BME280;45554;51.096;16.976;2024-01-16T02:13:44;98722.11;;;-1.75;91.57
59686;BME280;45554;51.096;16.976;2024-01-16T02:16:23;98736.50;;;-1.74;91.67
59686;BME280;45554;51.096;16.976;2024-01-16T02:18:52;98735.80;;;-1.74;91.67
59686;BME280;45554;51.096;16.976;2024-01-16T02:21:22;98730.13;;;-1.73;91.65
59686;BME280;45554;51.096;16.976;2024-01-16T02:23:50;98729.70;;;-1.71;91.54
59686;BME280;45554;51.096;16.976;2024-01-16T02:26:18;98723.68;;;-1.70;91.34
59686;BME280;45554;51.096;16.976;2024-01-16T02:28:48;98728.99;;;-1.70;91.03
59686;BME280;45554;51.096;16.976;2024-01-16T02:31:16;98735.80;;;-1.68;91.28
59686;BME280;45554;51.096;16.976;2024-01-16T02:33:44;98742.29;;;-1.66;91.27
59686;BME280;45554;51.096;16.976;2024-01-16T02:36:12;98750.28;;;-1.64;91.43
59686;BME280;45554;51.096;16.976;2024-01-16T02:38:41;98755.09;;;-1.63;91.46
59686;BME280;45554;51.096;16.976;2024-01-16T02:41:14;98762.95;;;-1.62;91.54
59686;BME280;45554;51.096;16.976;2024-01-16T02:43:44;98767.61;;;-1.63;91.35
59686;BME280;45554;51.096;16.976;2024-01-16T02:46:13;98771.41;;;-1.63;91.17
59686;BME280;45554;51.096;16.976;2024-01-16T02:48:41;98767.65;;;-1.64;91.61
59686;BME280;45554;51.096;16.976;2024-01-16T02:51:10;98775.66;;;-1.61;91.74
59686;BME280;45554;51.096;16.976;2024-01-16T02:53:38;98785.41;;;-1.61;92.33
59686;BME280;45554;51.096;16.976;2024-01-16T02:56:08;98789.13;;;-1.59;92.76
59686;BME280;45554;51.096;16.976;2024-01-16T02:58:37;98788.77;;;-1.58;92.84
59686;BME280;45554;51.096;16.976;2024-01-16T03:01:05;98797.58;;;-1.60;92.80
59686;BME280;45554;51.096;16.976;2024-01-16T03:03:33;98799.48;;;-1.60;93.07
59686;BME280;45554;51.096;16.976;2024-01-16T03:06:01;98797.98;;;-1.61;93.38
59686;BME280;45554;51.096;16.976;2024-01-16T03:08:30;98795.46;;;-1.63;93.31
59686;BME280;45554;51.096;16.976;2024-01-16T03:10:57;98805.77;;;-1.64;93.62
59686;BME280;45554;51.096;16.976;2024-01-16T03:13:26;98802.21;;;-1.65;93.49
59686;BME280;45554;51.096;16.976;2024-01-16T03:15:54;98799.98;;;-1.66;93.59
59686;BME280;45554;51.096;16.976;2024-01-16T03:18:21;98797.45;;;-1.67;93.44
59686;BME280;45554;51.096;16.976;2024-01-16T03:20:50;98803.34;;;-1.69;93.21
59686;BME280;45554;51.096;16.976;2024-01-16T03:23:18;98809.07;;;-1.71;93.09
59686;BME280;45554;51.096;16.976;2024-01-16T03:25:46;98809.21;;;-1.76;93.09
59686;BME280;45554;51.096;16.976;2024-01-16T03:28:15;98808.09;;;-1.79;93.80
59686;BME280;45554;51.096;16.976;2024-01-16T03:30:43;98813.45;;;-1.80;94.12
59686;BME280;45554;51.096;16.976;2024-01-16T03:33:11;98811.61;;;-1.82;94.20
59686;BME280;45554;51.096;16.976;2024-01-16T03:35:39;98807.19;;;-1.84;94.30
59686;BME280;45554;51.096;16.976;2024-01-16T03:38:07;98802.25;;;-1.85;94.45
59686;BME280;45554;51.096;16.976;2024-01-16T03:40:35;98799.84;;;-1.85;94.19
59686;BME280;45554;51.096;16.976;2024-01-16T03:43:03;98801.67;;;-1.83;94.01
59686;BME280;45554;51.096;16.976;2024-01-16T03:45:33;98793.27;;;-1.84;93.90
59686;BME280;45554;51.096;16.976;2024-01-16T03:48:02;98794.97;;;-1.83;93.99
59686;BME280;45554;51.096;16.976;2024-01-16T03:50:31;98802.86;;;-1.82;93.91
59686;BME280;45554;51.096;16.976;2024-01-16T03:52:59;98802.14;;;-1.81;93.95
59686;BME280;45554;51.096;16.976;2024-01-16T03:55:27;98806.75;;;-1.80;93.82
59686;BME280;45554;51.096;16.976;2024-01-16T03:57:55;98816.30;;;-1.77;94.09
59686;BME280;45554;51.096;16.976;2024-01-16T04:00:23;98822.41;;;-1.75;93.92
59686;BME280;45554;51.096;16.976;2024-01-16T04:02:51;98824.09;;;-1.74;93.70
59686;BME280;45554;51.096;16.976;2024-01-16T04:05:19;98819.91;;;-1.72;93.59
59686;BME280;45554;51.096;16.976;2024-01-16T04:07:48;98818.86;;;-1.71;93.45
59686;BME280;45554;51.096;16.976;2024-01-16T04:10:15;98820.01;;;-1.69;93.40
59686;BME280;45554;51.096;16.976;2024-01-16T04:12:43;98818.58;;;-1.67;93.34
59686;BME280;45554;51.096;16.976;2024-01-16T04:15:12;98823.01;;;-1.66;93.08
59686;BME280;45554;51.096;16.976;2024-01-16T04:17:39;98822.13;;;-1.65;92.86
59686;BME280;45554;51.096;16.976;2024-01-16T04:20:09;98822.45;;;-1.64;92.80
59686;BME280;45554;51.096;16.976;2024-01-16T04:22:37;98828.80;;;-1.64;92.71
59686;BME280;45554;51.096;16.976;2024-01-16T04:25:05;98835.13;;;-1.63;92.97
59686;BME280;45554;51.096;16.976;2024-01-16T04:27:34;98839.91;;;-1.62;92.75
59686;BME280;45554;51.096;16.976;2024-01-16T04:30:02;98847.86;;;-1.63;92.73
59686;BME280;45554;51.096;16.976;2024-01-16T04:32:31;98850.20;;;-1.61;92.76
59686;BME280;45554;51.096;16.976;2024-01-16T04:34:59;98858.45;;;-1.61;92.68
59686;BME280;45554;51.096;16.976;2024-01-16T04:37:27;98851.80;;;-1.62;92.58
59686;BME280;45554;51.096;16.976;2024-01-16T04:39:55;98844.58;;;-1.63;92.64
59686;BME280;45554;51.096;16.976;2024-01-16T04:42:26;98841.15;;;-1.63;92.60
59686;BME280;45554;51.096;16.976;2024-01-16T04:44:54;98841.14;;;-1.63;92.60
59686;BME280;45554;51.096;16.976;2024-01-16T04:47:22;98844.05;;;-1.62;92.52
59686;BME280;45554;51.096;16.976;2024-01-16T04:49:50;98843.17;;;-1.61;92.40
59686;BME280;45554;51.096;16.976;2024-01-16T04:52:18;98851.39;;;-1.61;92.44
59686;BME280;45554;51.096;16.976;2024-01-16T04:54:46;98858.70;;;-1.58;92.80
59686;BME280;45554;51.096;16.976;2024-01-16T04:57:15;98853.66;;;-1.56;92.82
59686;BME280;45554;51.096;16.976;2024-01-16T04:59:42;98859.14;;;-1.55;92.78
59686;BME280;45554;51.096;16.976;2024-01-16T05:02:11;98862.52;;;-1.53;92.86
59686;BME280;45554;51.096;16.976;2024-01-16T05:04:39;98860.04;;;-1.51;92.94
59686;BME280;45554;51.096;16.976;2024-01-16T05:07:07;98856.91;;;-1.50;92.61
59686;BME280;45554;51.096;16.976;2024-01-16T05:09:35;98864.58;;;-1.47;92.76
59686;BME280;45554;51.096;16.976;2024-01-16T05:12:04;98860.91;;;-1.45;92.93
59686;BME280;45554;51.096;16.976;2024-01-16T05:14:32;98862.89;;;-1.42;92.82
59686;BME280;45554;51.096;16.976;2024-01-16T05:17:00;98865.39;;;-1.40;92.60
59686;BME280;45554;51.096;16.976;2024-01-16T05:19:28;98862.55;;;-1.36;92.76
59686;BME280;45554;51.096;16.976;2024-01-16T05:21:56;98864.91;;;-1.34;92.50
59686;BME280;45554;51.096;16.976;2024-01-16T05:24:24;98859.55;;;-1.33;92.39
59686;BME280;45554;51.096;16.976;2024-01-16T05:26:52;98859.33;;;-1.32;92.40
59686;BME280;45554;51.096;16.976;2024-01-16T05:29:20;98859.64;;;-1.30;92.46
59686;BME280;45554;51.096;16.976;2024-01-16T05:31:50;98860.27;;;-1.29;92.15
59686;BME280;45554;51.096;16.976;2024-01-16T05:34:18;98861.98;;;-1.28;92.18
59686;BME280;45554;51.096;16.976;2024-01-16T05:36:46;98868.98;;;-1.27;92.02
59686;BME280;45554;51.096;16.976;2024-01-16T05:39:14;98874.10;;;-1.25;92.25
59686;BME280;45554;51.096;16.976;2024-01-16T05:41:42;98876.10;;;-1.23;92.24
59686;BME280;45554;51.096;16.976;2024-01-16T05:44:10;98878.13;;;-1.22;92.06
59686;BME280;45554;51.096;16.976;2024-01-16T05:46:38;98878.80;;;-1.21;91.77
59686;BME280;45554;51.096;16.976;2024-01-16T05:49:06;98881.08;;;-1.23;91.73
59686;BME280;45554;51.096;16.976;2024-01-16T05:51:34;98888.64;;;-1.22;91.72
59686;BME280;45554;51.096;16.976;2024-01-16T05:54:03;98886.77;;;-1.23;91.76
59686;BME280;45554;51.096;16.976;2024-01-16T05:56:31;98883.16;;;-1.23;91.69
59686;BME280;45554;51.096;16.976;2024-01-16T05:58:59;98882.27;;;-1.22;92.00
59686;BME280;45554;51.096;16.976;2024-01-16T06:01:27;98883.41;;;-1.20;92.24
59686;BME280;45554;51.096;16.976;2024-01-16T06:03:55;98876.85;;;-1.19;92.00
59686;BME280;45554;51.096;16.976;2024-01-16T06:06:23;98879.56;;;-1.18;91.89
59686;BME280;45554;51.096;16.976;2024-01-16T06:08:51;98882.40;;;-1.15;92.08
59686;BME280;45554;51.096;16.976;2024-01-16T06:11:29;98890.45;;;-1.08;91.73
59686;BME280;45554;51.096;16.976;2024-01-16T06:13:58;98899.20;;;-1.07;91.83
59686;BME280;45554;51.096;16.976;2024-01-16T06:16:27;98922.17;;;-1.05;91.58
59686;BME280;45554;51.096;16.976;2024-01-16T06:18:55;98933.13;;;-1.09;91.52
59686;BME280;45554;51.096;16.976;2024-01-16T06:21:23;98941.65;;;-1.18;91.49
59686;BME280;45554;51.096;16.976;2024-01-16T06:23:52;98944.07;;;-1.31;91.56
59686;BME280;45554;51.096;16.976;2024-01-16T06:26:20;98949.55;;;-1.43;91.44
59686;BME280;45554;51.096;16.976;2024-01-16T06:28:49;98951.86;;;-1.53;91.59
59686;BME280;45554;51.096;16.976;2024-01-16T06:31:17;98946.60;;;-1.62;91.54
59686;BME280;45554;51.096;16.976;2024-01-16T06:33:48;98956.53;;;-1.67;91.86
59686;BME280;45554;51.096;16.976;2024-01-16T06:36:17;98952.20;;;-1.72;91.62
59686;BME280;45554;51.096;16.976;2024-01-16T06:38:45;98957.66;;;-1.77;91.77
59686;BME280;45554;51.096;16.976;2024-01-16T06:41:13;98962.88;;;-1.80;91.90
59686;BME280;45554;51.096;16.976;2024-01-16T06:43:41;98971.05;;;-1.84;91.58
59686;BME280;45554;51.096;16.976;2024-01-16T06:46:09;98978.18;;;-1.87;91.53
59686;BME280;45554;51.096;16.976;2024-01-16T06:48:37;98975.99;;;-1.89;91.54
59686;BME280;45554;51.096;16.976;2024-01-16T06:51:06;98977.73;;;-1.90;91.63
59686;BME280;45554;51.096;16.976;2024-01-16T06:53:36;98983.52;;;-1.88;91.83
59686;BME280;45554;51.096;16.976;2024-01-16T06:56:06;98987.05;;;-1.85;92.03
59686;BME280;45554;51.096;16.976;2024-01-16T06:58:35;98999.61;;;-1.65;93.13
59686;BME280;45554;51.096;16.976;2024-01-16T07:01:04;99005.59;;;-1.57;92.02
59686;BME280;45554;51.096;16.976;2024-01-16T07:03:31;99009.73;;;-1.51;91.51
59686;BME280;45554;51.096;16.976;2024-01-16T07:06:01;99023.73;;;-1.48;91.39
59686;BME280;45554;51.096;16.976;2024-01-16T07:08:31;99033.42;;;-1.44;91.33
59686;BME280;45554;51.096;16.976;2024-01-16T07:10:59;99043.40;;;-1.44;91.17
59686;BME280;45554;51.096;16.976;2024-01-16T07:13:27;99038.77;;;-1.44;91.20
59686;BME280;45554;51.096;16.976;2024-01-16T07:15:56;99045.62;;;-1.43;91.54
59686;BME280;45554;51.096;16.976;2024-01-16T07:18:24;99050.08;;;-1.43;91.48
59686;BME280;45554;51.096;16.976;2024-01-16T07:20:52;99053.66;;;-1.42;91.72
59686;BME280;45554;51.096;16.976;2024-01-16T07:23:21;99060.48;;;-1.40;91.69
59686;BME280;45554;51.096;16.976;2024-01-16T07:25:48;99062.44;;;-1.42;91.40
59686;BME280;45554;51.096;16.976;2024-01-16T07:28:17;99067.81;;;-1.44;91.38
59686;BME280;45554;51.096;16.976;2024-01-16T07:30:45;99067.52;;;-1.46;91.40
59686;BME280;45554;51.096;16.976;2024-01-16T07:33:13;99072.70;;;-1.47;91.48
59686;BME280;45554;51.096;16.976;2024-01-16T07:35:41;99078.31;;;-1.45;91.81
59686;BME280;45554;51.096;16.976;2024-01-16T07:38:12;99083.23;;;-1.42;91.71
59686;BME280;45554;51.096;16.976;2024-01-16T07:40:40;99091.27;;;-1.40;91.47
59686;BME280;45554;51.096;16.976;2024-01-16T07:43:08;99097.23;;;-1.38;91.53
59686;BME280;45554;51.096;16.976;2024-01-16T07:45:36;99099.02;;;-1.34;91.45
59686;BME280;45554;51.096;16.976;2024-01-16T07:48:04;99099.58;;;-1.29;91.59
59686;BME280;45554;51.096;16.976;2024-01-16T07:50:34;99102.48;;;-1.22;91.31
59686;BME280;45554;51.096;16.976;2024-01-16T07:53:03;99100.09;;;-1.15;91.52
59686;BME280;45554;51.096;16.976;2024-01-16T07:55:31;99108.33;;;-1.08;91.24
59686;BME280;45554;51.096;16.976;2024-01-16T07:57:59;99117.88;;;-1.05;90.97
59686;BME280;45554;51.096;16.976;2024-01-16T08:00:29;99117.41;;;-1.00;90.99
59686;BME280;45554;51.096;16.976;2024-01-16T08:02:59;99117.31;;;-0.97;90.92
59686;BME280;45554;51.096;16.976;2024-01-16T08:05:28;99120.84;;;-0.94;90.91
59686;BME280;45554;51.096;16.976;2024-01-16T08:07:58;99121.31;;;-0.91;90.62
59686;BME280;45554;51.096;16.976;2024-01-16T08:10:26;99130.86;;;-0.88;90.12
59686;BME280;45554;51.096;16.976;2024-01-16T08:12:54;99139.58;;;-0.87;90.05
59686;BME280;45554;51.096;16.976;2024-01-16T08:15:22;99145.35;;;-0.83;90.06
59686;BME280;45554;51.096;16.976;2024-01-16T08:17:50;99150.65;;;-0.75;89.87
59686;BME280;45554;51.096;16.976;2024-01-16T08:20:19;99154.16;;;-0.72;89.91
59686;BME280;45554;51.096;16.976;2024-01-16T08:22:47;99158.24;;;-0.70;89.84
59686;BME280;45554;51.096;16.976;2024-01-16T08:25:15;99160.45;;;-0.69;89.65
59686;BME280;45554;51.096;16.976;2024-01-16T08:27:43;99169.30;;;-0.71;89.53
59686;BME280;45554;51.096;16.976;2024-01-16T08:30:13;99173.08;;;-0.71;89.88
59686;BME280;45554;51.096;16.976;2024-01-16T08:32:41;99178.17;;;-0.68;89.47
59686;BME280;45554;51.096;16.976;2024-01-16T08:35:10;99183.79;;;-0.66;89.35
59686;BME280;45554;51.096;16.976;2024-01-16T08:37:38;99187.05;;;-0.60;89.47
59686;BME280;45554;51.096;16.976;2024-01-16T08:40:07;99184.44;;;-0.52;89.60
59686;BME280;45554;51.096;16.976;2024-01-16T08:42:36;99184.48;;;-0.47;89.10
59686;BME280;45554;51.096;16.976;2024-01-16T08:45:05;99183.37;;;-0.44;88.95
59686;BME280;45554;51.096;16.976;2024-01-16T08:47:33;99181.96;;;-0.44;88.93
59686;BME280;45554;51.096;16.976;2024-01-16T08:50:02;99186.31;;;-0.38;89.32
59686;BME280;45554;51.096;16.976;2024-01-16T08:52:30;99191.03;;;-0.35;89.28
59686;BME280;45554;51.096;16.976;2024-01-16T08:54:58;99194.12;;;-0.35;90.04
59686;BME280;45554;51.096;16.976;2024-01-16T08:57:30;99194.83;;;-0.35;90.86
59686;BME280;45554;51.096;16.976;2024-01-16T08:59:58;99195.88;;;-0.36;90.81
59686;BME280;45554;51.096;16.976;2024-01-16T09:02:26;99202.73;;;-0.34;90.99
59686;BME280;45554;51.096;16.976;2024-01-16T09:04:57;99206.69;;;-0.28;91.42
59686;BME280;45554;51.096;16.976;2024-01-16T09:07:27;99204.48;;;-0.17;91.17
59686;BME280;45554;51.096;16.976;2024-01-16T09:09:55;99205.70;;;-0.11;90.96
59686;BME280;45554;51.096;16.976;2024-01-16T09:12:26;99204.14;;;-0.10;90.77
59686;BME280;45554;51.096;16.976;2024-01-16T09:14:54;99211.38;;;-0.11;91.32
59686;BME280;45554;51.096;16.976;2024-01-16T09:17:22;99204.07;;;-0.14;91.18
59686;BME280;45554;51.096;16.976;2024-01-16T09:19:53;99209.44;;;-0.16;90.97
59686;BME280;45554;51.096;16.976;2024-01-16T09:22:21;99204.33;;;-0.18;91.61
59686;BME280;45554;51.096;16.976;2024-01-16T09:24:49;99212.94;;;-0.11;92.57
59686;BME280;45554;51.096;16.976;2024-01-16T09:27:18;99217.94;;;-0.11;91.27
59686;BME280;45554;51.096;16.976;2024-01-16T09:29:46;99221.60;;;-0.13;90.89
59686;BME280;45554;51.096;16.976;2024-01-16T09:32:14;99221.45;;;-0.14;90.31
59686;BME280;45554;51.096;16.976;2024-01-16T09:34:42;99219.44;;;-0.16;90.22
59686;BME280;45554;51.096;16.976;2024-01-16T09:37:10;99221.97;;;-0.14;90.21
59686;BME280;45554;51.096;16.976;2024-01-16T09:39:41;99222.39;;;-0.10;90.65
59686;BME280;45554;51.096;16.976;2024-01-16T09:42:09;99221.79;;;-0.01;90.52
59686;BME280;45554;51.096;16.976;2024-01-16T09:44:37;99229.44;;;0.08;89.87
59686;BME280;45554;51.096;16.976;2024-01-16T09:47:05;99226.83;;;0.16;89.23
59686;BME280;45554;51.096;16.976;2024-01-16T09:49:36;99228.91;;;0.21;89.10
59686;BME280;45554;51.096;16.976;2024-01-16T09:52:09;99234.23;;;0.28;89.61
59686;BME280;45554;51.096;16.976;2024-01-16T09:54:52;99233.92;;;0.33;89.65
59686;BME280;45554;51.096;16.976;2024-01-16T09:57:25;99231.98;;;0.34;89.46
59686;BME280;45554;51.096;16.976;2024-01-16T09:59:58;99228.03;;;0.39;89.58
59686;BME280;45554;51.096;16.976;2024-01-16T10:03:02;99230.48;;;0.44;89.62
59686;BME280;45554;51.096;16.976;2024-01-16T10:05:52;99237.80;;;0.47;89.11
59686;BME280;45554;51.096;16.976;2024-01-16T10:08:59;99244.23;;;0.50;89.65
59686;BME280;45554;51.096;16.976;2024-01-16T10:11:28;99248.80;;;0.53;88.79
59686;BME280;45554;51.096;16.976;2024-01-16T10:13:58;99251.58;;;0.53;88.49
59686;BME280;45554;51.096;16.976;2024-01-16T10:16:54;99254.04;;;0.51;87.97
59686;BME280;45554;51.096;16.976;2024-01-16T10:19:24;99257.55;;;0.49;87.92
59686;BME280;45554;51.096;16.976;2024-01-16T10:22:21;99258.46;;;0.48;87.15
59686;BME280;45554;51.096;16.976;2024-01-16T10:25:07;99254.23;;;0.45;86.76
59686;BME280;45554;51.096;16.976;2024-01-16T10:27:39;99253.50;;;0.46;86.93
59686;BME280;45554;51.096;16.976;2024-01-16T10:30:09;99260.09;;;0.45;86.31
59686;BME280;45554;51.096;16.976;2024-01-16T10:32:51;99270.16;;;0.43;86.37
59686;BME280;45554;51.096;16.976;2024-01-16T10:36:08;99275.75;;;0.40;85.55
59686;BME280;45554;51.096;16.976;2024-01-16T10:39:14;99277.82;;;0.34;85.29
59686;BME280;45554;51.096;16.976;2024-01-16T10:42:09;99282.68;;;0.27;84.88
59686;BME280;45554;51.096;16.976;2024-01-16T10:45:01;99279.07;;;0.20;84.54
59686;BME280;45554;51.096;16.976;2024-01-16T10:48:06;99281.95;;;0.16;84.99
59686;BME280;45554;51.096;16.976;2024-01-16T10:51:19;99283.73;;;0.14;84.45
59686;BME280;45554;51.096;16.976;2024-01-16T10:54:21;99290.13;;;0.13;84.83
59686;BME280;45554;51.096;16.976;2024-01-16T10:56:53;99298.20;;;0.13;84.86
59686;BME280;45554;51.096;16.976;2024-01-16T10:59:34;99296.67;;;0.13;84.36
59686;BME280;45554;51.096;16.976;2024-01-16T11:02:20;99299.80;;;0.13;83.59
59686;BME280;45554;51.096;16.976;2024-01-16T11:04:55;99299.42;;;0.13;83.43
59686;BME280;45554;51.096;16.976;2024-01-16T11:07:30;99296.69;;;0.12;84.06
59686;BME280;45554;51.096;16.976;2024-01-16T11:10:03;99289.73;;;0.15;84.13
59686;BME280;45554;51.096;16.976;2024-01-16T11:12:32;99280.64;;;0.20;83.83
59686;BME280;45554;51.096;16.976;2024-01-16T11:15:43;99284.23;;;0.33;84.17
59686;BME280;45554;51.096;16.976;2024-01-16T11:18:58;99289.50;;;0.42;83.33
59686;BME280;45554;51.096;16.976;2024-01-16T11:22:25;99292.98;;;0.52;83.91
59686;BME280;45554;51.096;16.976;2024-01-16T11:29:56;99305.23;;;0.81;83.12
59686;BME280;45554;51.096;16.976;2024-01-16T11:37:29;99298.85;;;1.09;82.31
59686;BME280;45554;51.096;16.976;2024-01-16T11:47:25;99314.08;;;1.66;81.66
59686;BME280;45554;51.096;16.976;2024-01-16T11:50:49;99314.59;;;1.61;80.69
59686;BME280;45554;51.096;16.976;2024-01-16T11:53:41;99308.02;;;1.46;80.51
59686;BME280;45554;51.096;16.976;2024-01-16T11:57:08;99311.02;;;1.33;80.51
59686;BME280;45554;51.096;16.976;2024-01-16T12:00:52;99315.87;;;1.17;80.99
59686;BME280;45554;51.096;16.976;2024-01-16T12:04:29;99312.78;;;1.05;80.63
59686;BME280;45554;51.096;16.976;2024-01-16T12:08:38;99321.77;;;1.10;80.65
59686;BME280;45554;51.096;16.976;2024-01-16T12:12:37;99312.85;;;1.14;80.33
59686;BME280;45554;51.096;16.976;2024-01-16T12:15:22;99310.91;;;1.20;80.66
59686;BME280;45554;51.096;16.976;2024-01-16T12:18:17;99310.25;;;1.30;80.22
59686;BME280;45554;51.096;16.976;2024-01-16T12:21:41;99309.56;;;1.30;80.43
59686;BME280;45554;51.096;16.976;2024-01-16T12:24:55;99316.44;;;1.42;80.19
59686;BME280;45554;51.096;16.976;2024-01-16T12:28:16;99317.29;;;1.48;80.38
59686;BME280;45554;51.096;16.976;2024-01-16T12:36:12;99333.25;;;1.66;80.04
59686;BME280;45554;51.096;16.976;2024-01-16T12:40:18;99336.69;;;1.72;79.44
59686;BME280;45554;51.096;16.976;2024-01-16T12:43:18;99332.84;;;1.79;80.05
59686;BME280;45554;51.096;16.976;2024-01-16T12:47:20;99334.98;;;1.97;79.76
59686;BME280;45554;51.096;16.976;2024-01-16T12:51:08;99348.17;;;2.06;77.73
59686;BME280;45554;51.096;16.976;2024-01-16T12:54:59;99362.48;;;1.91;77.16
59686;BME280;45554;51.096;16.976;2024-01-16T12:59:12;99366.77;;;1.61;77.12
59686;BME280;45554;51.096;16.976;2024-01-16T13:03:38;99368.77;;;1.25;78.19
59686;BME280;45554;51.096;16.976;2024-01-16T13:07:18;99369.59;;;1.09;77.92
59686;BME280;45554;51.096;16.976;2024-01-16T13:11:20;99366.69;;;1.03;78.80
59686;BME280;45554;51.096;16.976;2024-01-16T13:14:48;99367.46;;;1.00;78.98
59686;BME280;45554;51.096;16.976;2024-01-16T13:18:26;99364.86;;;0.94;78.83
59686;BME280;45554;51.096;16.976;2024-01-16T13:21:06;99368.57;;;0.92;78.49
59686;BME280;45554;51.096;16.976;2024-01-16T13:29:02;99369.14;;;0.96;78.86
59686;BME280;45554;51.096;16.976;2024-01-16T13:31:55;99368.65;;;1.01;78.76
59686;BME280;45554;51.096;16.976;2024-01-16T13:38:53;99352.97;;;0.77;78.45
59686;BME280;45554;51.096;16.976;2024-01-16T13:41:28;99368.52;;;0.82;78.54
59686;BME280;45554;51.096;16.976;2024-01-16T13:44:00;99363.85;;;0.76;78.69
59686;BME280;45554;51.096;16.976;2024-01-16T13:46:58;99368.50;;;0.70;78.84
59686;BME280;45554;51.096;16.976;2024-01-16T13:49:55;99372.88;;;0.62;79.01
59686;BME280;45554;51.096;16.976;2024-01-16T13:52:51;99369.48;;;0.54;79.11
59686;BME280;45554;51.096;16.976;2024-01-16T13:56:10;99379.33;;;0.53;79.03
59686;BME280;45554;51.096;16.976;2024-01-16T13:58:55;99378.30;;;0.47;79.03
59686;BME280;45554;51.096;16.976;2024-01-16T14:01:38;99364.48;;;0.35;79.40
59686;BME280;45554;51.096;16.976;2024-01-16T14:04:06;99373.98;;;0.35;79.75
59686;BME280;45554;51.096;16.976;2024-01-16T14:07:01;99382.09;;;0.35;79.84
59686;BME280;45554;51.096;16.976;2024-01-16T14:14:32;99390.91;;;0.26;80.50
59686;BME280;45554;51.096;16.976;2024-01-16T14:17:18;99394.10;;;0.23;80.81
59686;BME280;45554;51.096;16.976;2024-01-16T14:20:00;99387.19;;;0.18;80.81